Terminal Aerodrome Forecast
Issued by NWS

Home | Current Version | Previous Version | Text Only | Print | Product List | Glossary On
Versions: 1 2 3 4 5 6 7 8 9 10 11 12 13 14 15 16 17 18 19
895
FTUS43 KAPX 141723
TAFPLN
TAF
KPLN 141723Z 1418/1518 27007KT P6SM VCSH OVC030
     FM142200 27006KT P6SM -SHSN OVC030
     FM150800 25004KT 2SM -SHSN OVC020
     FM151000 25004KT 1 1/2SM -SHSN OVC015=

USA.gov is the U.S. government's official web portal to all federal, state and local government web resources and services.